Date,TemperatureHighF,TemperatureAvgF,TemperatureLowF,DewpointHighF,DewpointAvgF,DewpointLowF,HumidityHigh,HumidityAvg,HumidityLow,PressureMaxIn,PressureMinIn,WindSpeedMaxMPH,WindSpeedAvgMPH,GustSpeedMaxMPH,PrecipitationSumIn
2013-10-1,84.9,77.6,73.2,75.6,73.6,71.4,96,88,68,30.04,29.95,18,6,18,0.00
2013-10-2,84.2,77.7,70.9,75.6,73.8,69.6,98,88,73,30.07,29.96,24,5,25,0.63
2013-10-3,88.2,79.3,72.3,77.9,74.3,71.6,99,86,60,30.04,29.94,14,5,15,0.00
2013-10-4,85.8,78.5,73.6,76.3,74.3,72.3,97,88,69,30.04,29.95,24,6,24,0.04
2013-10-5,83.7,78.0,74.5,77.5,74.5,72.3,98,89,72,30.00,29.90,28,6,29,0.13
2013-10-6,76.8,72.1,63.7,73.8,67.0,54.1,97,85,62,30.02,29.87,21,6,21,0.13
2013-10-7,74.7,66.1,58.8,58.8,55.1,49.8,85,69,51,30.09,30.00,18,6,19,0.00
2013-10-8,75.9,66.8,57.9,61.2,56.8,53.6,86,72,52,30.10,30.01,12,4,12,0.00
2013-10-9,80.4,69.3,59.7,66.2,60.4,56.1,93,75,51,30.12,30.04,9,2,9,0.00
2013-10-10,80.6,71.6,65.3,69.1,65.7,61.0,99,83,59,30.13,30.01,9,2,9,0.00
2013-10-11,85.8,74.5,65.8,74.5,70.2,64.9,98,88,60,30.07,29.97,18,4,19,0.00
2013-10-12,87.3,77.6,70.5,75.9,71.3,68.7,97,82,56,30.14,29.99,13,3,13,0.09
2013-10-13,84.7,76.6,71.2,74.7,72.1,70.0,98,87,65,30.19,30.04,13,3,13,0.00
2013-10-14,84.0,76.4,69.4,72.3,67.1,63.0,95,75,51,30.14,30.03,14,4,14,0.00
2013-10-15,85.1,76.2,68.5,72.7,69.9,66.6,97,82,58,30.07,29.95,15,3,15,0.00
2013-10-16,81.3,75.7,71.1,73.6,71.4,68.7,95,87,72,30.03,29.92,15,4,15,0.00
2013-10-17,74.5,68.8,63.1,72.9,65.8,60.3,97,90,81,30.06,29.94,15,6,15,0.00
2013-10-18,73.6,65.7,59.0,62.2,58.7,56.1,94,79,60,30.09,29.95,19,5,19,0.01
2013-10-19,71.8,64.9,60.1,63.3,60.0,56.5,97,85,67,30.07,29.94,16,5,16,0.72
2013-10-20,72.7,62.6,54.1,61.0,55.2,50.4,92,78,56,30.12,30.00,13,3,13,0.00
2013-10-21,70.2,64.6,57.7,64.0,60.9,55.9,95,88,78,30.09,29.96,14,3,14,0.00
2013-10-22,75.4,67.2,59.9,65.3,62.5,57.4,95,85,65,30.06,29.97,18,5,18,0.00
2013-10-23,74.5,64.3,53.1,58.6,54.4,51.3,96,73,46,30.17,30.06,12,4,12,0.00
2013-10-24,78.8,66.2,52.9,62.4,54.0,48.0,91,67,38,30.25,30.15,9,2,9,0.00
2013-10-25,69.1,61.1,54.3,59.4,49.9,44.6,88,68,42,30.42,30.24,18,6,20,0.00
2013-10-26,75.7,61.2,48.4,58.3,49.9,42.3,87,68,43,30.33,30.17,12,4,13,0.00
2013-10-27,72.0,65.5,57.4,66.7,61.7,55.4,96,88,78,30.18,30.06,20,5,20,0.02
2013-10-28,82.2,72.4,63.9,69.1,65.9,62.4,95,81,58,30.20,30.08,13,4,14,0.00
2013-10-29,81.5,71.7,63.5,69.1,65.7,62.4,97,82,60,30.24,30.15,20,6,20,0.00
2013-10-30,80.6,72.6,66.2,71.1,68.1,64.4,97,86,68,30.20,30.02,20,7,20,0.00
2013-10-31,82.2,72.9,66.4,74.1,70.0,65.1,98,91,74,30.02,29.83,31,6,35,0.82